Time;durP1;ratioP1;P1;durP2;ratioP2;P2;SDS_P1;SDS_P2;PMS_P1;PMS_P2;Temp;Humidity;BMP_temperature;BMP_pressure;BME280_temperature;BME280_humidity;BME280_pressure;Samples;Min_cycle;Max_cycle;Signal;HPM_P1;HPM_P2
2021/06/01 00:01:23;;;;;;;3.90;2.65;;;18.20;99.90;;;;;;5071095;28;20208;-78
2021/06/01 00:03:49;;;;;;;4.35;2.33;;;18.30;99.90;;;;;;5071299;28;20735;-88
2021/06/01 00:06:17;;;;;;;3.90;2.63;;;18.20;99.90;;;;;;5070728;28;20256;-89
2021/06/01 00:08:44;;;;;;;2.85;2.65;;;18.20;99.90;;;;;;5070854;28;20752;-84
2021/06/01 00:11:12;;;;;;;4.22;2.33;;;18.20;99.90;;;;;;5070333;28;20356;-83
2021/06/01 00:13:39;;;;;;;4.72;2.85;;;18.20;99.90;;;;;;5070418;28;20210;-84
2021/06/01 00:16:08;;;;;;;3.03;2.20;;;18.20;99.90;;;;;;5070893;28;20221;-82
2021/06/01 00:18:35;;;;;;;6.20;3.13;;;18.20;99.90;;;;;;5070080;28;20202;-86
2021/06/01 00:21:02;;;;;;;3.10;2.72;;;18.20;99.90;;;;;;5070451;28;20214;-77
2021/06/01 00:23:29;;;;;;;3.58;3.28;;;18.20;99.90;;;;;;5069533;28;20673;-77
2021/06/01 00:25:55;;;;;;;6.55;3.72;;;18.20;99.90;;;;;;5069732;28;20214;-78
2021/06/01 00:28:22;;;;;;;3.75;3.40;;;18.20;99.90;;;;;;5070080;28;20234;-79
2021/06/01 00:30:48;;;;;;;3.92;3.58;;;18.10;99.90;;;;;;5070419;28;20202;-78
2021/06/01 00:33:16;;;;;;;6.47;4.68;;;18.20;99.90;;;;;;5069779;28;20210;-78
2021/06/01 00:35:43;;;;;;;4.32;3.92;;;18.10;99.90;;;;;;5073195;28;20206;-81
2021/06/01 00:38:09;;;;;;;5.50;3.78;;;18.10;99.90;;;;;;5074118;28;20210;-81
2021/06/01 00:40:36;;;;;;;3.75;3.45;;;18.10;99.90;;;;;;5073035;28;20206;-77
2021/06/01 00:43:02;;;;;;;6.93;4.15;;;18.10;99.90;;;;;;5073959;28;20213;-78
2021/06/01 00:45:29;;;;;;;4.40;4.00;;;18.10;99.90;;;;;;5073838;28;20206;-80
2021/06/01 00:47:56;;;;;;;4.32;3.90;;;18.10;99.90;;;;;;5073495;28;20272;-80
2021/06/01 00:50:26;;;;;;;4.38;3.95;;;18.00;99.90;;;;;;5073860;28;20206;-79
2021/06/01 00:52:54;;;;;;;4.80;3.85;;;18.00;99.90;;;;;;5073751;28;20199;-84
2021/06/01 00:55:21;;;;;;;6.50;4.63;;;18.10;99.90;;;;;;5074131;28;20210;-82
2021/06/01 00:57:48;;;;;;;4.68;4.28;;;18.10;99.90;;;;;;5073526;28;20620;-83
2021/06/01 01:00:33;;;;;;;5.53;4.03;;;18.10;99.90;;;;;;5073804;28;20229;-81
2021/06/01 01:03:00;;;;;;;5.70;4.40;;;18.10;99.90;;;;;;5073781;28;20202;-80
2021/06/01 01:05:32;;;;;;;5.15;4.05;;;18.10;99.90;;;;;;5073082;28;20206;-80
2021/06/01 01:08:06;;;;;;;6.78;4.13;;;18.10;99.90;;;;;;5073347;28;20233;-77
2021/06/01 01:10:36;;;;;;;9.10;4.13;;;18.00;99.90;;;;;;5073218;28;20213;-83
2021/06/01 01:13:06;;;;;;;3.78;3.33;;;18.00;99.90;;;;;;5073243;28;20294;-79
2021/06/01 01:15:35;;;;;;;6.15;4.35;;;18.10;99.90;;;;;;5072970;28;20700;-80
2021/06/01 01:18:05;;;;;;;5.22;4.05;;;18.00;99.90;;;;;;5073548;28;20293;-82
2021/06/01 01:20:37;;;;;;;6.45;4.22;;;18.00;99.90;;;;;;5073114;28;20213;-77
2021/06/01 01:23:15;;;;;;;5.63;4.20;;;18.00;99.90;;;;;;5072749;28;20322;-85
2021/06/01 01:25:53;;;;;;;8.82;4.70;;;18.00;99.90;;;;;;5072761;28;20221;-81
2021/06/01 01:28:28;;;;;;;4.65;3.97;;;18.00;99.90;;;;;;5072961;28;20659;-82
2021/06/01 01:31:01;;;;;;;4.68;4.03;;;18.00;99.90;;;;;;5073207;28;20228;-82
2021/06/01 01:33:34;;;;;;;5.93;4.07;;;18.00;99.90;;;;;;5072315;28;20209;-81
2021/06/01 01:36:03;;;;;;;5.03;4.07;;;18.00;99.90;;;;;;5072874;28;20214;-81
2021/06/01 01:38:31;;;;;;;9.90;4.82;;;18.00;99.90;;;;;;5072548;28;20537;-83
2021/06/01 01:41:01;;;;;;;6.63;4.45;;;18.00;99.90;;;;;;5072416;28;20206;-81
2021/06/01 01:43:31;;;;;;;5.75;4.32;;;18.10;99.90;;;;;;5072672;28;20259;-80
2021/06/01 01:46:05;;;;;;;9.30;4.32;;;18.20;99.90;;;;;;5072549;28;20280;-75
2021/06/01 01:51:19;;;;;;;7.13;5.38;;;18.20;99.90;;;;;;5072636;28;20209;-77
2021/06/01 01:53:52;;;;;;;6.70;4.57;;;18.30;99.90;;;;;;5072256;28;20295;-77
2021/06/01 01:56:20;;;;;;;5.70;5.15;;;18.30;99.90;;;;;;5072593;28;20696;-77
2021/06/01 01:58:49;;;;;;;5.53;3.83;;;18.20;99.90;;;;;;5072507;28;20214;-78
2021/06/01 02:01:17;;;;;;;9.90;4.70;;;18.20;99.90;;;;;;5072406;28;20221;-79
2021/06/01 02:03:45;;;;;;;5.13;4.63;;;18.20;99.90;;;;;;5071804;28;20240;-79
2021/06/01 02:06:12;;;;;;;5.15;4.65;;;18.30;99.90;;;;;;5072402;28;20259;-79
2021/06/01 02:08:39;;;;;;;7.03;5.10;;;18.20;99.90;;;;;;5071882;28;20316;-77
2021/06/01 02:11:07;;;;;;;5.75;4.47;;;18.10;99.90;;;;;;5072075;28;20210;-78
2021/06/01 02:13:41;;;;;;;6.65;4.53;;;18.10;99.90;;;;;;5062762;28;20212;-77
2021/06/01 02:16:08;;;;;;;7.60;4.43;;;18.10;99.90;;;;;;5072093;28;20213;-78
2021/06/01 02:18:34;;;;;;;5.97;4.78;;;18.10;99.90;;;;;;5071753;28;20214;-77
2021/06/01 02:21:07;;;;;;;6.63;5.40;;;18.10;99.90;;;;;;5071925;28;20210;-79
2021/06/01 02:23:49;;;;;;;5.28;4.78;;;18.10;99.90;;;;;;5071500;28;20202;-79
2021/06/01 02:26:40;;;;;;;5.65;4.43;;;18.10;99.90;;;;;;5071848;28;20228;-78
2021/06/01 02:29:15;;;;;;;4.35;3.95;;;18.20;99.90;;;;;;5066662;28;20252;-79
2021/06/01 02:31:46;;;;;;;5.63;5.05;;;18.10;99.90;;;;;;5071626;28;20205;-79
2021/06/01 02:34:14;;;;;;;5.88;5.13;;;18.00;99.90;;;;;;5071726;28;20202;-79
2021/06/01 02:36:43;;;;;;;6.63;4.22;;;18.10;99.90;;;;;;5071081;28;20666;-78
2021/06/01 02:39:10;;;;;;;8.90;4.57;;;18.00;99.90;;;;;;5071738;28;20233;-79
2021/06/01 02:41:36;;;;;;;4.55;4.13;;;18.00;99.90;;;;;;5071392;28;20202;-79
2021/06/01 02:44:04;;;;;;;10.30;5.35;;;18.00;99.90;;;;;;5071830;28;20206;-80
2021/06/01 02:46:30;;;;;;;7.07;4.50;;;18.00;99.90;;;;;;5070679;28;20674;-79
2021/06/01 02:48:58;;;;;;;5.15;4.65;;;18.00;99.90;;;;;;5071467;28;20205;-79
2021/06/01 02:51:25;;;;;;;6.82;4.78;;;18.00;99.90;;;;;;5070904;28;20203;-79
2021/06/01 02:53:54;;;;;;;5.43;4.57;;;17.90;99.90;;;;;;5071734;28;20408;-77
2021/06/01 02:56:22;;;;;;;6.82;4.30;;;17.90;99.90;;;;;;5071209;28;20206;-77
2021/06/01 02:58:50;;;;;;;5.63;5.05;;;17.90;99.90;;;;;;5071589;28;20688;-78
2021/06/01 03:01:17;;;;;;;6.00;4.50;;;17.90;99.90;;;;;;5071538;28;20206;-81
2021/06/01 03:03:45;;;;;;;5.40;4.65;;;17.90;99.90;;;;;;5070675;28;20210;-79
2021/06/01 03:06:12;;;;;;;7.80;4.60;;;17.80;99.90;;;;;;5071211;28;20262;-80
2021/06/01 03:08:40;;;;;;;7.07;4.32;;;17.80;99.90;;;;;;5070299;28;20226;-77
2021/06/01 03:11:09;;;;;;;7.78;4.35;;;17.90;99.90;;;;;;5071362;28;20229;-78
2021/06/01 03:13:35;;;;;;;4.88;4.47;;;17.80;99.90;;;;;;5070503;28;20206;-77
2021/06/01 03:16:02;;;;;;;7.05;4.50;;;17.80;99.90;;;;;;5070962;28;20681;-76
2021/06/01 03:18:29;;;;;;;5.65;4.75;;;17.80;99.90;;;;;;5070455;28;20214;-80
2021/06/01 03:20:56;;;;;;;7.35;4.53;;;17.80;99.90;;;;;;5070661;28;20206;-78
2021/06/01 03:23:23;;;;;;;5.03;4.53;;;17.70;99.90;;;;;;5071103;28;20209;-76
2021/06/01 03:25:50;;;;;;;4.88;4.43;;;17.80;99.90;;;;;;5070704;28;20240;-77
2021/06/01 03:28:19;;;;;;;5.53;4.30;;;17.80;99.90;;;;;;5071083;28;20230;-77
2021/06/01 03:30:46;;;;;;;6.07;4.75;;;17.70;99.90;;;;;;5070462;28;20744;-83
2021/06/01 03:33:13;;;;;;;5.53;4.50;;;17.80;99.90;;;;;;5070896;28;20210;-82
2021/06/01 03:35:40;;;;;;;5.45;3.90;;;17.80;99.90;;;;;;5069918;28;20775;-80
2021/06/01 03:38:06;;;;;;;5.68;5.03;;;17.80;99.90;;;;;;5071189;28;20213;-80
2021/06/01 03:40:34;;;;;;;5.93;5.32;;;17.80;99.90;;;;;;5070583;28;20206;-79
2021/06/01 03:43:00;;;;;;;6.13;5.45;;;17.80;99.90;;;;;;5070573;28;20202;-83
2021/06/01 03:45:28;;;;;;;6.80;4.50;;;17.80;99.90;;;;;;5070046;28;20587;-81
2021/06/01 03:47:55;;;;;;;4.78;4.15;;;17.80;99.90;;;;;;5070274;28;20232;-80
2021/06/01 03:50:22;;;;;;;4.57;4.03;;;17.90;99.90;;;;;;5071145;28;20218;-79
2021/06/01 03:52:49;;;;;;;5.50;4.53;;;17.80;99.90;;;;;;5070742;28;20202;-77
2021/06/01 03:55:17;;;;;;;7.22;5.45;;;17.90;99.90;;;;;;5070486;28;20206;-80
2021/06/01 03:57:46;;;;;;;5.80;4.30;;;17.90;99.90;;;;;;5070087;28;20214;-80
2021/06/01 04:00:15;;;;;;;6.53;4.65;;;17.90;99.90;;;;;;5070664;28;20270;-78
2021/06/01 04:02:44;;;;;;;5.80;4.35;;;17.90;99.90;;;;;;5069944;28;20218;-85
2021/06/01 04:05:11;;;;;;;5.50;5.00;;;17.90;99.90;;;;;;5070882;28;20274;-79
2021/06/01 04:07:38;;;;;;;5.15;4.32;;;17.90;99.90;;;;;;5070273;28;20226;-80
2021/06/01 04:10:06;;;;;;;6.85;4.07;;;18.00;99.90;;;;;;5069110;28;20211;-80
2021/06/01 04:12:33;;;;;;;4.50;4.10;;;18.00;99.90;;;;;;5070058;28;20217;-82
2021/06/01 04:14:59;;;;;;;6.53;4.22;;;18.00;99.90;;;;;;5070335;28;20241;-81
2021/06/01 04:17:26;;;;;;;5.20;4.80;;;18.00;99.90;;;;;;5070002;28;20213;-79
2021/06/01 04:19:54;;;;;;;5.53;5.03;;;18.10;99.90;;;;;;5070290;28;20217;-80
2021/06/01 04:22:21;;;;;;;6.63;4.13;;;18.10;99.90;;;;;;5070358;28;20198;-80
2021/06/01 04:24:47;;;;;;;5.63;4.70;;;18.00;99.90;;;;;;5070229;28;20217;-80
2021/06/01 04:27:14;;;;;;;6.00;4.32;;;18.00;99.90;;;;;;5070232;28;20233;-79
2021/06/01 04:29:40;;;;;;;5.30;4.20;;;18.00;99.90;;;;;;5069964;28;20210;-80
2021/06/01 04:32:08;;;;;;;4.97;4.47;;;18.00;99.90;;;;;;5069858;28;20205;-79
2021/06/01 04:34:34;;;;;;;4.00;3.70;;;18.00;99.90;;;;;;5055837;28;20205;-78
2021/06/01 04:37:03;;;;;;;5.25;3.92;;;18.10;99.90;;;;;;5070363;28;20619;-80
2021/06/01 04:39:29;;;;;;;4.50;4.05;;;18.10;99.90;;;;;;5069472;28;20666;-78
2021/06/01 04:41:56;;;;;;;4.20;3.90;;;18.10;99.90;;;;;;5070101;28;20206;-77
2021/06/01 04:44:23;;;;;;;5.05;4.55;;;18.10;99.90;;;;;;5069649;28;20218;-78
2021/06/01 04:46:50;;;;;;;5.50;4.18;;;18.00;99.90;;;;;;5070084;28;20665;-80
2021/06/01 04:49:17;;;;;;;4.78;4.30;;;18.10;99.90;;;;;;5070032;28;20738;-76
2021/06/01 04:51:43;;;;;;;7.63;4.47;;;18.10;99.90;;;;;;5069607;28;20570;-79
2021/06/01 04:54:12;;;;;;;3.95;3.55;;;18.10;99.90;;;;;;5069760;28;20214;-82
2021/06/01 04:56:39;;;;;;;6.82;3.90;;;18.10;99.90;;;;;;5069206;28;20563;-81
2021/06/01 04:59:05;;;;;;;3.97;3.47;;;18.00;99.90;;;;;;5070118;28;20210;-79
2021/06/01 05:01:32;;;;;;;5.97;4.75;;;18.00;99.90;;;;;;5068927;28;20206;-79
2021/06/01 05:03:58;;;;;;;6.85;4.45;;;18.10;99.90;;;;;;5069762;28;20213;-79
2021/06/01 05:06:25;;;;;;;6.20;3.88;;;18.10;99.90;;;;;;5069343;28;20217;-79
2021/06/01 05:08:51;;;;;;;4.97;4.28;;;18.10;99.90;;;;;;5070166;28;20226;-85
2021/06/01 05:11:20;;;;;;;6.45;3.92;;;18.10;99.90;;;;;;5069973;28;20232;-79
2021/06/01 05:13:47;;;;;;;7.63;4.10;;;18.10;99.90;;;;;;5070014;28;20226;-78
2021/06/01 05:16:14;;;;;;;4.97;3.75;;;18.00;99.90;;;;;;5069800;28;20206;-77
2021/06/01 05:18:41;;;;;;;5.88;5.15;;;18.00;99.90;;;;;;5070930;28;20727;-84
2021/06/01 05:21:08;;;;;;;7.65;5.00;;;18.00;99.90;;;;;;5070522;28;20576;-79
2021/06/01 05:23:35;;;;;;;7.90;4.80;;;18.00;99.90;;;;;;5083138;28;20240;-78
2021/06/01 05:26:03;;;;;;;6.28;4.13;;;18.00;99.90;;;;;;5088660;28;20755;-76
2021/06/01 05:28:31;;;;;;;5.15;3.97;;;18.00;99.90;;;;;;5085690;28;20229;-79
2021/06/01 05:31:05;;;;;;;5.30;4.53;;;18.00;99.90;;;;;;5086351;28;20204;-80
2021/06/01 05:33:33;;;;;;;4.63;4.18;;;18.00;99.90;;;;;;5084093;28;20574;-79
2021/06/01 05:36:00;;;;;;;5.10;4.40;;;18.10;99.90;;;;;;5086388;28;20217;-80
2021/06/01 05:38:29;;;;;;;5.53;4.32;;;18.10;99.90;;;;;;5086806;28;20211;-76
2021/06/01 05:40:57;;;;;;;6.43;4.32;;;18.10;99.90;;;;;;5084329;28;20216;-79
2021/06/01 05:43:24;;;;;;;4.15;3.83;;;18.10;99.90;;;;;;5088190;28;20209;-77
2021/06/01 05:45:52;;;;;;;8.43;4.88;;;18.10;99.90;;;;;;5082908;28;20213;-75
2021/06/01 05:48:19;;;;;;;6.90;4.50;;;18.10;99.90;;;;;;5088331;28;20226;-76
2021/06/01 05:50:46;;;;;;;4.45;3.92;;;18.10;99.90;;;;;;5083309;28;20552;-76
2021/06/01 05:53:13;;;;;;;5.03;4.63;;;18.20;99.90;;;;;;5087573;28;20232;-76
2021/06/01 05:55:39;;;;;;;7.18;4.38;;;18.10;99.90;;;;;;5085280;28;20244;-76
2021/06/01 05:58:06;;;;;;;5.20;4.47;;;18.20;99.90;;;;;;5085601;28;20216;-72
2021/06/01 06:00:33;;;;;;;7.00;4.07;;;18.20;99.90;;;;;;5077087;28;20312;-72
2021/06/01 06:03:02;;;;;;;8.07;4.50;;;18.20;99.90;;;;;;5083121;28;20271;-74
2021/06/01 06:05:29;;;;;;;4.60;4.22;;;18.30;99.90;;;;;;5087189;28;20593;-77
2021/06/01 06:07:56;;;;;;;5.80;3.80;;;18.40;99.90;;;;;;5082851;28;20286;-77
2021/06/01 06:10:22;;;;;;;5.22;3.78;;;18.50;99.90;;;;;;5087953;28;20216;-74
2021/06/01 06:12:49;;;;;;;5.38;4.28;;;18.60;99.90;;;;;;5084088;28;20293;-75
2021/06/01 06:15:17;;;;;;;7.60;3.83;;;18.60;99.90;;;;;;5077946;28;20284;-74
2021/06/01 06:17:48;;;;;;;9.68;4.97;;;18.80;99.90;;;;;;5069480;28;20210;-72
2021/06/01 06:20:16;;;;;;;6.55;4.53;;;18.90;99.90;;;;;;5070930;28;20205;-73
2021/06/01 06:22:42;;;;;;;7.38;4.82;;;18.90;99.90;;;;;;5063172;28;20608;-74
2021/06/01 06:25:12;;;;;;;5.95;4.60;;;18.80;99.90;;;;;;5077614;28;20742;-73
2021/06/01 06:27:39;;;;;;;9.20;5.15;;;18.90;99.90;;;;;;5069514;28;20225;-75
2021/06/01 06:30:07;;;;;;;5.30;4.32;;;19.00;99.90;;;;;;5069855;28;20213;-77
2021/06/01 06:32:34;;;;;;;7.78;4.47;;;18.80;99.90;;;;;;5078733;28;20209;-75
2021/06/01 06:35:00;;;;;;;5.25;3.50;;;18.90;99.90;;;;;;5085941;28;20209;-75
2021/06/01 06:37:28;;;;;;;6.28;4.97;;;18.90;99.90;;;;;;5086131;28;20316;-75
2021/06/01 06:39:55;;;;;;;6.38;4.32;;;18.90;99.90;;;;;;5082282;28;20202;-77
2021/06/01 06:42:22;;;;;;;5.68;4.78;;;18.90;99.90;;;;;;5071427;28;20615;-76
2021/06/01 06:44:50;;;;;;;6.60;4.60;;;18.90;99.90;;;;;;5087194;28;20255;-81
2021/06/01 06:47:23;;;;;;;6.20;4.53;;;18.90;99.90;;;;;;5068176;28;20207;-77
2021/06/01 06:49:50;;;;;;;6.10;4.95;;;18.80;99.90;;;;;;5079345;28;20201;-76
2021/06/01 06:52:17;;;;;;;7.22;4.32;;;18.90;99.90;;;;;;5066320;28;20292;-78
2021/06/01 06:54:45;;;;;;;6.60;4.80;;;19.00;99.90;;;;;;5075907;28;20672;-83
2021/06/01 06:57:12;;;;;;;5.68;4.13;;;19.10;99.90;;;;;;5069700;28;20205;-78
2021/06/01 06:59:39;;;;;;;5.95;3.92;;;19.10;99.90;;;;;;5059875;28;20209;-79
2021/06/01 07:02:06;;;;;;;6.47;4.70;;;19.10;99.90;;;;;;5062093;28;20210;-75
2021/06/01 07:04:33;;;;;;;8.48;4.15;;;18.90;99.90;;;;;;5070206;28;20209;-74
2021/06/01 07:06:59;;;;;;;7.75;4.55;;;18.90;99.90;;;;;;5075452;28;20205;-81
2021/06/01 07:09:26;;;;;;;5.35;4.05;;;18.80;99.90;;;;;;5078185;28;20225;-77
2021/06/01 07:11:56;;;;;;;7.20;3.88;;;19.00;99.90;;;;;;5087863;28;20201;-76
2021/06/01 07:14:42;;;;;;;6.03;4.45;;;19.30;99.90;;;;;;5087035;28;20692;-75
2021/06/01 07:17:08;;;;;;;6.32;3.63;;;19.90;99.90;;;;;;5072375;28;20595;-76
2021/06/01 07:19:34;;;;;;;4.97;4.47;;;19.90;99.90;;;;;;5082652;28;20232;-74
2021/06/01 07:22:01;;;;;;;5.47;4.85;;;20.10;99.90;;;;;;5073898;28;20206;-75
2021/06/01 07:24:28;;;;;;;6.78;3.83;;;20.00;99.90;;;;;;5070519;28;20214;-75
2021/06/01 07:26:56;;;;;;;5.80;4.22;;;20.00;99.90;;;;;;5076776;28;20213;-76
2021/06/01 07:29:23;;;;;;;4.63;4.00;;;20.10;99.90;;;;;;5080215;28;20709;-78
2021/06/01 07:31:50;;;;;;;4.95;4.10;;;20.30;99.90;;;;;;5081816;28;20293;-73
2021/06/01 07:34:19;;;;;;;4.60;4.20;;;20.50;99.90;;;;;;5060807;28;20232;-75
2021/06/01 07:36:45;;;;;;;6.15;4.70;;;20.50;99.90;;;;;;5060950;28;20248;-73
2021/06/01 07:39:11;;;;;;;7.30;4.10;;;20.30;99.90;;;;;;5075167;28;20217;-74
2021/06/01 07:41:38;;;;;;;5.65;4.80;;;20.10;99.90;;;;;;5061669;28;20222;-73
2021/06/01 07:44:06;;;;;;;9.35;4.63;;;20.70;99.90;;;;;;5063696;28;20202;-75
2021/06/01 07:46:33;;;;;;;7.72;4.95;;;20.90;99.90;;;;;;5063007;28;20207;-80
2021/06/01 07:49:00;;;;;;;5.63;4.50;;;21.20;99.90;;;;;;5070749;28;20611;-76
2021/06/01 07:51:31;;;;;;;6.13;3.95;;;21.50;99.90;;;;;;5082869;28;20208;-74
2021/06/01 07:54:02;;;;;;;4.55;4.15;;;21.80;99.90;;;;;;5067536;28;20285;-81
2021/06/01 07:56:29;;;;;;;7.63;4.50;;;21.60;99.90;;;;;;5059881;28;20206;-78
2021/06/01 07:58:55;;;;;;;4.47;4.05;;;21.50;99.90;;;;;;5059821;28;20263;-75
2021/06/01 08:01:23;;;;;;;4.22;3.63;;;21.30;99.90;;;;;;5068757;28;20206;-77
2021/06/01 08:03:49;;;;;;;4.82;4.05;;;21.40;99.90;;;;;;5068015;28;20198;-80
2021/06/01 08:06:16;;;;;;;6.90;3.75;;;21.50;99.90;;;;;;5060520;28;20210;-83
2021/06/01 08:08:43;;;;;;;6.97;4.43;;;22.80;99.90;;;;;;5061302;28;20371;-75
2021/06/01 08:11:10;;;;;;;4.47;3.67;;;24.50;99.90;;;;;;5059681;28;20577;-73
2021/06/01 08:13:36;;;;;;;3.95;3.50;;;24.10;99.90;;;;;;5082973;28;20202;-72
2021/06/01 08:16:03;;;;;;;5.40;3.80;;;22.10;99.90;;;;;;5062182;28;20232;-79
2021/06/01 08:18:35;;;;;;;8.32;4.85;;;21.70;99.90;;;;;;5063885;28;20201;-77
2021/06/01 08:21:06;;;;;;;5.75;4.32;;;21.80;99.90;;;;;;5059101;28;20202;-76
2021/06/01 08:23:33;;;;;;;4.25;3.88;;;21.60;99.90;;;;;;5056404;28;20207;-73
2021/06/01 08:26:00;;;;;;;4.72;4.22;;;21.50;99.90;;;;;;5080316;28;20213;-73
2021/06/01 08:28:27;;;;;;;4.57;4.18;;;21.30;99.90;;;;;;5071217;28;20226;-72
2021/06/01 08:30:53;;;;;;;13.23;4.53;;;20.90;99.90;;;;;;5074411;28;20208;-76
2021/06/01 08:33:21;;;;;;;5.78;3.88;;;20.90;99.90;;;;;;5072881;28;20198;-79
2021/06/01 08:35:49;;;;;;;6.18;4.38;;;20.80;99.90;;;;;;5073300;28;20697;-76
2021/06/01 08:38:17;;;;;;;6.47;4.05;;;20.90;99.90;;;;;;5069867;28;20206;-74
2021/06/01 08:40:49;;;;;;;4.57;3.97;;;21.00;99.90;;;;;;5073189;28;20364;-77
2021/06/01 08:43:17;;;;;;;8.95;4.32;;;20.80;99.90;;;;;;5071094;28;20210;-75
2021/06/01 08:45:50;;;;;;;5.50;4.55;;;20.90;99.90;;;;;;5074012;28;20225;-78
2021/06/01 08:48:17;;;;;;;4.88;4.38;;;20.80;99.90;;;;;;5067204;28;20313;-78
2021/06/01 08:50:46;;;;;;;7.32;4.22;;;20.80;99.90;;;;;;5066180;28;20293;-75
2021/06/01 08:53:15;;;;;;;4.03;3.65;;;20.90;99.90;;;;;;5073411;28;20213;-75
2021/06/01 08:55:42;;;;;;;4.75;3.60;;;20.70;99.90;;;;;;5074310;28;20214;-76
2021/06/01 08:58:13;;;;;;;5.82;4.43;;;20.70;99.90;;;;;;5075800;28;20201;-77
2021/06/01 09:00:40;;;;;;;5.40;3.15;;;20.70;99.90;;;;;;5066188;28;20202;-78
2021/06/01 09:03:08;;;;;;;9.35;5.63;;;21.00;99.90;;;;;;5075974;28;20197;-77
2021/06/01 09:05:35;;;;;;;6.70;4.30;;;21.10;99.90;;;;;;5072944;28;20202;-76
2021/06/01 09:08:04;;;;;;;7.20;4.03;;;21.40;99.90;;;;;;5069776;28;20236;-79
2021/06/01 09:21:35;;;;;;;4.55;4.15;;;23.50;99.90;;;;;;5073067;28;20212;-77
2021/06/01 09:24:05;;;;;;;7.03;6.32;;;24.80;99.90;;;;;;5070619;28;20216;-80
2021/06/01 09:26:53;;;;;;;9.75;6.55;;;23.50;99.90;;;;;;5072956;28;20202;-79
2021/06/01 09:29:19;;;;;;;10.40;8.68;;;23.00;99.90;;;;;;5073113;28;20218;-79
2021/06/01 09:32:07;;;;;;;6.63;4.43;;;23.10;99.90;;;;;;5072574;28;20217;-79
2021/06/01 09:34:39;;;;;;;7.50;4.30;;;23.80;99.90;;;;;;5072382;28;20693;-78
2021/06/01 09:37:25;;;;;;;6.28;4.47;;;24.20;99.90;;;;;;5072797;28;20681;-80
2021/06/01 09:40:13;;;;;;;6.18;4.88;;;24.00;99.90;;;;;;5058847;28;20210;-79
2021/06/01 09:42:42;;;;;;;4.97;3.92;;;23.90;99.90;;;;;;5064535;28;20214;-74
2021/06/01 09:45:12;;;;;;;11.65;4.65;;;23.90;99.90;;;;;;5076656;28;20216;-79
2021/06/01 09:47:49;;;;;;;4.68;3.33;;;24.10;99.90;;;;;;5065018;28;20724;-77
2021/06/01 09:50:25;;;;;;;5.57;4.25;;;25.00;99.90;;;;;;5065509;28;20258;-76
2021/06/01 09:52:56;;;;;;;5.65;3.92;;;25.70;99.90;;;;;;5065955;28;21635;-78
2021/06/01 09:55:27;;;;;;;4.97;3.22;;;26.20;99.90;;;;;;5071696;28;20248;-76
2021/06/01 09:57:56;;;;;;;4.45;3.95;;;26.70;99.90;;;;;;5067903;28;20283;-78
2021/06/01 10:00:25;;;;;;;5.95;3.90;;;27.20;99.90;;;;;;5075702;28;20653;-78
2021/06/01 10:02:55;;;;;;;3.70;3.45;;;27.30;99.90;;;;;;5074995;28;20206;-78
2021/06/01 10:05:23;;;;;;;4.82;3.25;;;27.40;99.90;;;;;;5074103;28;20636;-76
2021/06/01 10:07:51;;;;;;;6.07;4.60;;;28.40;99.90;;;;;;5073388;28;20226;-76
2021/06/01 10:10:21;;;;;;;7.60;4.97;;;30.00;99.90;;;;;;5061459;28;20205;-77
2021/06/01 10:12:50;;;;;;;6.13;4.90;;;29.00;99.90;;;;;;5072100;28;20301;-77
2021/06/01 10:15:21;;;;;;;8.32;4.07;;;28.90;99.90;;;;;;5075741;28;20205;-79
2021/06/01 10:17:49;;;;;;;4.35;3.45;;;29.20;99.90;;;;;;5075494;28;20214;-78
2021/06/01 10:20:17;;;;;;;3.50;3.08;;;29.60;99.90;;;;;;5084271;28;20229;-80
2021/06/01 10:22:44;;;;;;;3.88;3.10;;;29.70;99.90;;;;;;5070912;28;20210;-77
2021/06/01 10:25:12;;;;;;;3.85;3.17;;;29.70;99.90;;;;;;5071335;28;20695;-77
2021/06/01 10:27:39;;;;;;;5.82;3.47;;;28.40;99.90;;;;;;5069114;28;20290;-77
2021/06/01 10:30:08;;;;;;;10.45;4.55;;;29.40;99.90;;;;;;5063405;28;20673;-78
2021/06/01 10:32:40;;;;;;;5.38;3.60;;;31.50;99.90;;;;;;5076385;28;20205;-79
2021/06/01 10:35:11;;;;;;;4.72;3.40;;;28.20;99.90;;;;;;5076729;28;20206;-79
2021/06/01 10:52:16;;;;;;;4.68;3.50;;;25.60;99.90;;;;;;5067650;28;20202;-76
2021/06/01 10:54:57;;;;;;;5.82;3.72;;;25.70;99.90;;;;;;5079714;28;20201;-75
2021/06/01 10:57:44;;;;;;;5.80;2.95;;;25.20;99.90;;;;;;5074744;28;20205;-74
2021/06/01 11:03:05;;;;;;;6.95;3.60;;;24.30;99.90;;;;;;5080170;28;20221;-75
2021/06/01 11:06:10;;;;;;;6.88;3.25;;;24.70;99.90;;;;;;5082071;28;20263;-77
2021/06/01 11:08:42;;;;;;;4.22;3.45;;;24.60;99.90;;;;;;5067473;28;20217;-78
2021/06/01 11:11:32;;;;;;;5.47;4.10;;;24.30;99.90;;;;;;5083670;28;20205;-78
2021/06/01 11:14:01;;;;;;;9.77;5.13;;;24.50;99.90;;;;;;5072438;28;20239;-77
2021/06/01 11:16:55;;;;;;;4.55;3.28;;;24.20;99.90;;;;;;5081573;28;20206;-77
2021/06/01 11:19:25;;;;;;;7.13;3.67;;;23.90;99.90;;;;;;5085506;28;20209;-80
2021/06/01 11:22:03;;;;;;;4.75;4.15;;;24.20;99.90;;;;;;5075000;28;20296;-76
2021/06/01 11:33:08;;;;;;;3.35;3.05;;;25.10;99.90;;;;;;5076709;28;20614;-76
2021/06/01 11:35:39;;;;;;;4.53;3.60;;;25.20;99.90;;;;;;5082083;28;20295;-82
2021/06/01 11:38:12;;;;;;;3.75;3.08;;;25.10;99.90;;;;;;5066229;28;20237;-77
2021/06/01 11:40:59;;;;;;;4.60;3.25;;;25.20;99.90;;;;;;5078155;28;20655;-81
2021/06/01 11:43:26;;;;;;;4.65;3.35;;;24.90;99.90;;;;;;5073441;28;20205;-75
2021/06/01 11:45:58;;;;;;;5.10;3.72;;;24.80;99.90;;;;;;5070788;28;20224;-77
2021/06/01 11:51:14;;;;;;;5.63;3.55;;;24.60;99.90;;;;;;5043138;28;20211;-79
2021/06/01 11:53:50;;;;;;;5.32;3.53;;;24.30;99.90;;;;;;5062947;28;20232;-81
2021/06/01 11:57:02;;;;;;;3.58;3.28;;;24.90;99.90;;;;;;5075024;28;20339;-80
2021/06/01 12:02:29;;;;;;;4.32;3.10;;;25.40;99.90;;;;;;5063907;28;20216;-81
2021/06/01 12:13:33;;;;;;;6.57;4.40;;;24.60;99.90;;;;;;5044251;28;20721;-78
2021/06/01 12:18:49;;;;;;;5.80;4.38;;;25.60;99.90;;;;;;5067159;28;20217;-73
2021/06/01 12:21:18;;;;;;;4.03;3.60;;;25.00;99.90;;;;;;5061473;28;20210;-78
2021/06/01 12:23:49;;;;;;;3.95;3.55;;;24.90;99.90;;;;;;5077607;28;20631;-77
2021/06/01 12:26:21;;;;;;;4.80;4.30;;;24.60;99.90;;;;;;5080867;28;20304;-77
2021/06/01 12:31:51;;;;;;;7.25;3.78;;;24.60;99.90;;;;;;5092413;28;20262;-78
2021/06/01 12:34:22;;;;;;;5.90;4.50;;;24.50;99.90;;;;;;5091983;28;20201;-78
2021/06/01 12:45:52;;;;;;;4.30;3.55;;;24.60;99.90;;;;;;5093158;28;20208;-79
2021/06/01 13:19:23;;;;;;;5.65;4.05;;;24.00;99.90;;;;;;5092613;28;20196;-79
2021/06/01 13:21:53;;;;;;;5.38;3.70;;;24.00;99.90;;;;;;5079371;28;20541;-77
2021/06/01 13:30:10;;;;;;;11.73;4.28;;;23.90;99.90;;;;;;5073297;28;20660;-78
2021/06/01 13:30:45;;;;;;;9.05;4.07;;;23.40;99.90;;;;;;5072643;28;20225;-77
2021/06/01 13:36:29;;;;;;;7.13;3.58;;;23.30;99.90;;;;;;5072919;28;20299;-78
2021/06/01 13:38:59;;;;;;;5.18;3.33;;;23.60;99.90;;;;;;5073095;28;20580;-80
2021/06/01 13:47:05;;;;;;;4.10;3.08;;;24.30;99.90;;;;;;5072808;28;20278;-78
2021/06/01 13:49:37;;;;;;;6.65;3.40;;;24.10;99.90;;;;;;5072451;28;20234;-81
2021/06/01 13:52:18;;;;;;;3.28;2.97;;;24.50;99.90;;;;;;5067030;28;20210;-79
2021/06/01 13:55:08;;;;;;;5.82;3.92;;;24.70;99.90;;;;;;5072202;28;20210;-83
2021/06/01 13:57:40;;;;;;;13.45;5.07;;;24.80;99.90;;;;;;5072347;28;20206;-76
2021/06/01 14:00:34;;;;;;;3.55;2.83;;;25.00;99.90;;;;;;5072961;28;20209;-77
2021/06/01 14:20:39;;;;;;;4.60;3.42;;;24.40;99.90;;;;;;5072278;28;20275;-85
2021/06/01 14:31:53;;;;;;;4.72;3.17;;;23.70;99.90;;;;;;4990828;28;20271;-81
2021/06/01 15:08:17;;;;;;;7.95;4.53;;;22.90;99.90;;;;;;5073396;28;20221;-76
2021/06/01 15:47:42;;;;;;;6.95;2.85;;;22.20;99.90;;;;;;5084378;28;20625;-73
2021/06/01 15:49:46;;;;;;;6.57;2.85;;;21.80;99.90;;;;;;5083992;28;20248;-72
2021/06/01 15:55:45;;;;;;;4.35;3.67;;;21.70;99.90;;;;;;5070244;28;20209;-72
2021/06/01 16:23:36;;;;;;;4.82;2.90;;;21.50;99.90;;;;;;5080691;28;20342;-77
2021/06/01 16:31:40;;;;;;;3.20;2.90;;;21.60;99.90;;;;;;5058452;28;20309;-75
2021/06/01 16:42:56;;;;;;;4.60;3.08;;;21.90;99.90;;;;;;5069478;28;20225;-75
2021/06/01 17:04:44;;;;;;;5.57;2.50;;;21.00;99.90;;;;;;5087858;28;20719;-74
2021/06/01 17:07:21;;;;;;;3.40;2.42;;;20.90;99.90;;;;;;5074818;28;20670;-72
2021/06/01 17:12:45;;;;;;;2.83;2.33;;;20.60;99.90;;;;;;5074560;28;20333;-73
2021/06/01 17:15:15;;;;;;;5.25;2.38;;;20.50;99.90;;;;;;5080320;28;20292;-72
2021/06/01 17:17:48;;;;;;;3.45;2.10;;;20.50;99.90;;;;;;5078388;28;20205;-71
2021/06/01 17:31:46;;;;;;;4.78;2.78;;;20.30;99.90;;;;;;5087591;28;20262;-72
2021/06/01 17:37:02;;;;;;;5.93;3.22;;;20.00;99.90;;;;;;5093253;28;20204;-78
2021/06/01 17:39:30;;;;;;;3.20;2.47;;;20.00;99.90;;;;;;5095573;28;20202;-74
2021/06/01 17:41:58;;;;;;;3.92;3.30;;;19.90;99.90;;;;;;5104724;28;20761;-74
2021/06/01 17:44:27;;;;;;;4.75;3.17;;;19.80;99.90;;;;;;5098150;28;20202;-75
2021/06/01 17:46:57;;;;;;;2.67;2.25;;;19.80;99.90;;;;;;5106821;28;20254;-73